地図

経路データ

SID SEASON NUMBER BASIN SUBBASIN NAME ISO_TIME NATURE LAT LON WMO_WIND WMO_PRES WMO_AGENCY TRACK_TYPE DIST2LAND LANDFALL IFLAG USA_AGENCY USA_ATCF_ID USA_LAT USA_LON USA_RECORD USA_STATUS USA_WIND USA_PRES USA_SSHS USA_R34_NE USA_R34_SE USA_R34_SW USA_R34_NW USA_R50_NE USA_R50_SE USA_R50_SW USA_R50_NW USA_R64_NE USA_R64_SE USA_R64_SW USA_R64_NW USA_POCI USA_ROCI USA_RMW USA_EYE TOKYO_LAT TOKYO_LON TOKYO_GRADE TOKYO_WIND TOKYO_PRES TOKYO_R50_DIR TOKYO_R50_LONG TOKYO_R50_SHORT TOKYO_R30_DIR TOKYO_R30_LONG TOKYO_R30_SHORT TOKYO_LAND CMA_LAT CMA_LON CMA_CAT CMA_WIND CMA_PRES HKO_LAT HKO_LON HKO_CAT HKO_WIND HKO_PRES NEWDELHI_LAT NEWDELHI_LON NEWDELHI_GRADE NEWDELHI_WIND NEWDELHI_PRES NEWDELHI_CI NEWDELHI_DP NEWDELHI_POCI REUNION_LAT REUNION_LON REUNION_TYPE REUNION_WIND REUNION_PRES REUNION_TNUM REUNION_CI REUNION_RMW REUNION_R34_NE REUNION_R34_SE REUNION_R34_SW REUNION_R34_NW REUNION_R50_NE REUNION_R50_SE REUNION_R50_SW REUNION_R50_NW REUNION_R64_NE REUNION_R64_SE REUNION_R64_SW REUNION_R64_NW BOM_LAT BOM_LON BOM_TYPE BOM_WIND BOM_PRES BOM_TNUM BOM_CI BOM_RMW BOM_R34_NE BOM_R34_SE BOM_R34_SW BOM_R34_NW BOM_R50_NE BOM_R50_SE BOM_R50_SW BOM_R50_NW BOM_R64_NE BOM_R64_SE BOM_R64_SW BOM_R64_NW BOM_ROCI BOM_POCI BOM_EYE BOM_POS_METHOD BOM_PRES_METHOD NADI_LAT NADI_LON NADI_CAT NADI_WIND NADI_PRES WELLINGTON_LAT WELLINGTON_LON WELLINGTON_WIND WELLINGTON_PRES DS824_LAT DS824_LON DS824_STAGE DS824_WIND DS824_PRES TD9636_LAT TD9636_LON TD9636_STAGE TD9636_WIND TD9636_PRES TD9635_LAT TD9635_LON TD9635_WIND TD9635_PRES TD9635_ROCI NEUMANN_LAT NEUMANN_LON NEUMANN_CLASS NEUMANN_WIND NEUMANN_PRES MLC_LAT MLC_LON MLC_CLASS MLC_WIND MLC_PRES USA_GUST BOM_GUST BOM_GUST_PER REUNION_GUST REUNION_GUST_PER USA_SEAHGT USA_SEARAD_NE USA_SEARAD_SE USA_SEARAD_SW USA_SEARAD_NW STORM_SPEED STORM_DIR
1886261N20088 1886 33 NI BB NOT_NAMED 1886-09-18 00:00:00 TS 20.2000 87.8000 main 100 100 _________O____ -1 20.2000 87.8000 TC 30 0 0
1886261N20088 1886 33 NI BB NOT_NAMED 1886-09-18 03:00:00 TS 20.2000 87.8000 main 100 100 _________PO___ -1 20.2000 87.8000 TC 30 20.2000 87.8000 1 0 0
1886261N20088 1886 33 NI BB NOT_NAMED 1886-09-18 06:00:00 TS 20.2000 87.8000 main 100 100 _________OP___ -1 20.2000 87.8000 TC 30 20.2000 87.8000 1 0 0
1886261N20088 1886 33 NI BB NOT_NAMED 1886-09-18 09:00:00 TS 20.2000 87.8000 main 100 100 _________PP___ -1 20.2000 87.8000 TC 30 20.2000 87.8000 1 0 0
1886261N20088 1886 33 NI BB NOT_NAMED 1886-09-18 12:00:00 TS 20.2000 87.8000 main 100 100 _________OP___ -1 20.2000 87.8000 TC 30 20.2000 87.8000 1 0 0
1886261N20088 1886 33 NI BB NOT_NAMED 1886-09-18 15:00:00 TS 20.2000 87.8000 main 100 100 _________PO___ -1 20.2000 87.8000 TC 30 20.2000 87.8000 1 0 0
1886261N20088 1886 33 NI BB NOT_NAMED 1886-09-18 18:00:00 TS 20.2000 87.8000 main 100 100 _________OP___ -1 20.2000 87.8000 TC 30 20.2000 87.8000 1 0 0
1886261N20088 1886 33 NI BB NOT_NAMED 1886-09-18 21:00:00 TS 20.2000 87.8000 main 100 100 _________PP___ -1 20.2000 87.8000 TC 30 20.2000 87.8000 1 0 0
1886261N20088 1886 33 NI BB NOT_NAMED 1886-09-19 00:00:00 TS 20.2000 87.8000 main 100 100 _________OP___ -1 20.2000 87.8000 TC 30 20.2000 87.8000 1 0 0
1886261N20088 1886 33 NI BB NOT_NAMED 1886-09-19 03:00:00 TS 20.2000 87.8000 main 100 100 _________PO___ -1 20.2000 87.8000 TC 30 20.2000 87.8000 1 0 0
1886261N20088 1886 33 NI BB NOT_NAMED 1886-09-19 06:00:00 TS 20.2000 87.8000 main 100 100 _________OP___ -1 20.2000 87.8000 TC 30 20.2000 87.8000 1 0 0
1886261N20088 1886 33 NI BB NOT_NAMED 1886-09-19 09:00:00 TS 20.2000 87.8000 main 100 100 _________PP___ -1 20.2000 87.8000 TC 30 20.2000 87.8000 1 0 0
1886261N20088 1886 33 NI BB NOT_NAMED 1886-09-19 12:00:00 TS 20.2000 87.8000 main 100 100 _________OP___ -1 20.2000 87.8000 TC 30 20.2000 87.8000 1 0 0
1886261N20088 1886 33 NI BB NOT_NAMED 1886-09-19 15:00:00 TS 20.2000 87.8000 main 100 100 _________PO___ -1 20.2000 87.8000 TC 30 20.2000 87.8000 1 0 0
1886261N20088 1886 33 NI BB NOT_NAMED 1886-09-19 18:00:00 TS 20.1919 87.8122 main 100 100 _________OP___ -1 20.2000 87.8000 TC 30 20.1837 87.8243 1 0 118
1886261N20088 1886 33 NI BB NOT_NAMED 1886-09-19 21:00:00 TS 20.1812 87.8299 main 100 100 _________PP___ -1 20.1925 87.8150 TC 30 20.1699 87.8449 1 0 0
1886261N20088 1886 33 NI BB NOT_NAMED 1886-09-20 00:00:00 TS 20.1856 87.8215 main 100 100 _________OP___ -1 20.2000 87.8000 TC 30 20.1712 87.8430 1 1 298
1886261N20088 1886 33 NI BB NOT_NAMED 1886-09-20 03:00:00 TS 20.2137 87.7650 main 100 76 _________PO___ -1 20.2275 87.7299 TC 30 20.2000 87.8000 1 2 299
1886261N20088 1886 33 NI BB NOT_NAMED 1886-09-20 06:00:00 TS 20.2816 87.6365 main 76 61 _________OP___ -1 20.3000 87.6000 TC 30 20.2633 87.6730 1 3 302
1886261N20088 1886 33 NI BB NOT_NAMED 1886-09-20 09:00:00 TS 20.3952 87.4502 main 61 38 _________PP___ -1 20.4351 87.3926 TC 30 20.3552 87.5078 1 4 306
1886261N20088 1886 33 NI BB NOT_NAMED 1886-09-20 12:00:00 TS 20.5348 87.2693 main 38 20 _________OP___ -1 20.6000 87.2000 TC 30 20.4695 87.3386 1 4 316
1886261N20088 1886 33 NI BB NOT_NAMED 1886-09-20 15:00:00 TS 20.6750 87.1600 main 20 10 _________PO___ -1 20.7500 87.1199 TC 30 20.6000 87.2000 1 3 336
1886261N20088 1886 33 NI BB NOT_NAMED 1886-09-20 18:00:00 TS 20.8137 87.1336 main 10 10 _________OP___ -1 20.9000 87.1000 TC 30 20.7273 87.1671 1 3 0
1886261N20088 1886 33 NI BB NOT_NAMED 1886-09-20 21:00:00 TS 20.9561 87.1434 main 23 23 _________PP___ -1 21.0425 87.1224 TC 30 20.8698 87.1644 1 3 0
1886261N20088 1886 33 NI BB NOT_NAMED 1886-09-21 00:00:00 TS 21.1137 87.1273 main 30 10 _________OP___ -1 21.2000 87.1000 TC 30 21.0273 87.1545 1 4 341
1886261N20088 1886 33 NI BB NOT_NAMED 1886-09-21 03:00:00 TS 21.2963 87.0150 main 10 0 _________PO___ -1 21.3925 86.9301 TC 30 21.2000 87.1000 1 5 324
1886261N20088 1886 33 NI BB NOT_NAMED 1886-09-21 06:00:00 TS 21.4948 86.8313 main 0 0 _________OP___ -1 21.6000 86.7000 TC 30 21.3897 86.9626 1 5 320
1886261N20088 1886 33 NI BB NOT_NAMED 1886-09-21 09:00:00 TS 21.6999 86.6450 main 0 0 _________PP___ -1 21.8074 86.5149 TC 30 21.5925 86.7751 1 6 317
1886261N20088 1886 33 NI BB NOT_NAMED 1886-09-21 12:00:00 TS 21.8995 86.4250 main 0 0 _________OP___ -1 22.0000 86.3000 TC 30 21.7990 86.5500 1 6 309
1886261N20088 1886 33 NI BB NOT_NAMED 1886-09-21 15:00:00 TS 22.0750 86.1537 main 0 0 _________PO___ -1 22.1501 86.0074 TC 30 22.0000 86.3000 1 6 302
1886261N20088 1886 33 NI BB NOT_NAMED 1886-09-21 18:00:00 TS 22.2331 85.8570 main 0 0 _________OP___ -1 22.3000 85.7000 TC 30 22.1663 86.0141 1 6 302
1886261N20088 1886 33 NI BB NOT_NAMED 1886-09-21 21:00:00 TS 22.4065 85.5700 main 0 0 _________PP___ -1 22.4850 85.4275 TC 30 22.3280 85.7126 1 6 306
1886261N20088 1886 33 NI BB NOT_NAMED 1886-09-22 00:00:00 TS 22.6003 85.3149 main 0 0 _________OP___ -1 22.7000 85.2000 TC 30 22.5006 85.4298 1 6 314
1886261N20088 1886 33 NI BB NOT_NAMED 1886-09-22 03:00:00 TS 22.8175 85.1063 main 0 0 _________PO___ -1 22.9350 85.0125 TC 30 22.7000 85.2000 1 6 326
1886261N20088 1886 33 NI BB NOT_NAMED 1886-09-22 06:00:00 TS 23.0750 84.9715 main 0 0 _________OP___ -1 23.2000 84.9000 TC 30 22.9500 85.0431 1 6 341
1886261N20088 1886 33 NI BB NOT_NAMED 1886-09-22 09:00:00 TS 23.3636 84.9075 main 0 0 _________PP___ -1 23.5000 84.8699 TC 30 23.2272 84.9450 1 6 353
1886261N20088 1886 33 NI BB NOT_NAMED 1886-09-22 12:00:00 TS 23.6579 84.8997 main 0 0 _________OP___ -1 23.8000 84.9000 TC 30 23.5157 84.8994 1 6 0
1886261N20088 1886 33 NI BB NOT_NAMED 1886-09-22 15:00:00 TS 23.9287 84.9175 main 0 0 _________PO___ -1 24.0575 84.9350 TC 30 23.8000 84.9000 1 5 7
1886261N20088 1886 33 NI BB NOT_NAMED 1886-09-22 18:00:00 TS 24.1672 84.9656 main 0 0 _________OP___ -1 24.3000 85.0000 TC 30 24.0676 84.9398 1 5 13
1886261N20088 1886 33 NI BB NOT_NAMED 1886-09-22 21:00:00 TS 24.4111 85.0427 main 0 0 _________PP___ -1 24.5475 85.0924 TC 30 24.3202 85.0096 1 5 18
1886261N20088 1886 33 NI BB NOT_NAMED 1886-09-23 00:00:00 TS 24.6418 85.1331 main 0 0 _________OP___ -1 24.8000 85.2000 TC 30 24.5626 85.0996 1 4 20
1886261N20088 1886 33 NI BB NOT_NAMED 1886-09-23 03:00:00 NR 24.8000 85.2000 main 0 __________O___ -1 TC 24.8000 85.2000 1 3 19

IBTrACS Databaseについて

本データベースは、米国NOAAが公開する1842年以降の世界の熱帯低気圧のベストトラックデータアーカイブInternational Best Track Archive for Climate Stewardship (IBTrACS)を、ウェブで閲覧しやすい形式に変換したものです。

最終更新日:2021-12-06